Wetterdaten: Samstag, 10.08.2019
Datum Zeit Temp. A. Temp. A. min Temp. A. max Feuchte A. Bod.Feucht 4 Luftdruck Regen Wind Richtung Richtung Sonnenschein ET Solar Taupunkt Windchill Windben Empfang
10.08.2019 00:00 20,7 C 20,7 C 20,7 C 97 % 0 cb 1010,6 hPa 0,0 l/m 3,2 km/h (1 Bft) S-SW 202 0 min 0,000 mm 0 W/m 20,2 C 20,7 C 9,7 km/h (2 Bft) 100,00 %
10.08.2019 00:10 20,6 C 20,6 C 20,7 C 97 % 0 cb 1010,6 hPa 0,0 l/m 1,6 km/h (1 Bft) W 270 0 min 0,000 mm 0 W/m 20,1 C 20,6 C 6,4 km/h (2 Bft) 100,00 %
10.08.2019 00:20 20,6 C 20,6 C 20,6 C 97 % 0 cb 1010,5 hPa 0,0 l/m 1,6 km/h (1 Bft) SW 225 0 min 0,000 mm 0 W/m 20,1 C 20,6 C 4,8 km/h (1 Bft) 100,00 %
10.08.2019 00:30 20,6 C 20,5 C 20,6 C 97 % 0 cb 1010,2 hPa 0,0 l/m 1,6 km/h (1 Bft) S-SW 202 0 min 0,000 mm 0 W/m 20,1 C 20,6 C 6,4 km/h (2 Bft) 100,00 %
10.08.2019 00:40 20,5 C 20,5 C 20,6 C 97 % 0 cb 1010,3 hPa 0,0 l/m 1,6 km/h (1 Bft) S-SW 202 0 min 0,000 mm 0 W/m 20,0 C 20,5 C 6,4 km/h (2 Bft) 100,00 %
10.08.2019 00:50 20,4 C 20,4 C 20,5 C 97 % 0 cb 1010,2 hPa 0,0 l/m 1,6 km/h (1 Bft) W-SW 247 0 min 0,000 mm 0 W/m 19,9 C 20,4 C 6,4 km/h (2 Bft) 100,00 %
10.08.2019 01:00 20,4 C 20,4 C 20,4 C 97 % 0 cb 1010,2 hPa 0,0 l/m 1,6 km/h (1 Bft) S-SW 202 0 min 0,000 mm 0 W/m 19,9 C 20,4 C 8,0 km/h (2 Bft) 100,00 %
10.08.2019 01:10 20,3 C 20,3 C 20,4 C 97 % 0 cb 1010,1 hPa 0,0 l/m 1,6 km/h (1 Bft) S-SW 202 0 min 0,000 mm 0 W/m 19,8 C 20,3 C 6,4 km/h (2 Bft) 100,00 %
10.08.2019 01:20 20,2 C 20,2 C 20,3 C 97 % 0 cb 1010,1 hPa 0,0 l/m 3,2 km/h (1 Bft) S 180 0 min 0,000 mm 0 W/m 19,7 C 20,2 C 8,0 km/h (2 Bft) 100,00 %
10.08.2019 01:30 20,1 C 20,1 C 20,2 C 97 % 0 cb 1010,4 hPa 0,0 l/m 3,2 km/h (1 Bft) S-SW 202 0 min 0,000 mm 0 W/m 19,6 C 20,1 C 8,0 km/h (2 Bft) 100,00 %
10.08.2019 01:40 20,0 C 20,0 C 20,1 C 97 % 0 cb 1010,4 hPa 0,0 l/m 4,8 km/h (1 Bft) S-SW 202 0 min 0,000 mm 0 W/m 19,5 C 20,0 C 12,9 km/h (3 Bft) 100,00 %
10.08.2019 01:50 19,9 C 19,9 C 20,0 C 97 % 0 cb 1010,5 hPa 0,0 l/m 4,8 km/h (1 Bft) S-SW 202 0 min 0,000 mm 0 W/m 19,4 C 19,9 C 17,7 km/h (3 Bft) 100,00 %
10.08.2019 02:00 19,4 C 19,4 C 19,9 C 96 % 0 cb 1010,5 hPa 0,2 l/m 4,8 km/h (1 Bft) W 270 0 min 0,000 mm 0 W/m 18,7 C 19,4 C 20,9 km/h (4 Bft) 100,00 %
10.08.2019 02:10 19,1 C 19,1 C 19,4 C 95 % 0 cb 1010,8 hPa 0,0 l/m 4,8 km/h (1 Bft) W-SW 247 0 min 0,000 mm 0 W/m 18,3 C 19,1 C 17,7 km/h (3 Bft) 100,00 %
10.08.2019 02:20 18,7 C 18,7 C 19,1 C 94 % 0 cb 1010,7 hPa 0,0 l/m 3,2 km/h (1 Bft) W 270 0 min 0,000 mm 0 W/m 17,7 C 18,7 C 14,5 km/h (3 Bft) 100,00 %
10.08.2019 02:30 18,4 C 18,4 C 18,7 C 94 % 0 cb 1011,0 hPa 0,0 l/m 3,2 km/h (1 Bft) W 270 0 min 0,000 mm 0 W/m 17,4 C 18,4 C 9,7 km/h (2 Bft) 99,56 %
10.08.2019 02:40 18,2 C 18,2 C 18,4 C 94 % 0 cb 1010,9 hPa 0,0 l/m 3,2 km/h (1 Bft) W-NW 292 0 min 0,000 mm 0 W/m 17,2 C 18,2 C 12,9 km/h (3 Bft) 100,00 %
10.08.2019 02:50 17,9 C 17,9 C 18,2 C 93 % 0 cb 1011,1 hPa 0,0 l/m 3,2 km/h (1 Bft) W-NW 292 0 min 0,000 mm 0 W/m 16,8 C 17,9 C 11,3 km/h (2 Bft) 100,00 %
10.08.2019 03:00 17,7 C 17,7 C 17,9 C 93 % 0 cb 1011,0 hPa 0,0 l/m 1,6 km/h (1 Bft) W 270 0 min 0,000 mm 0 W/m 16,6 C 17,7 C 4,8 km/h (1 Bft) 100,00 %
10.08.2019 03:10 17,6 C 17,5 C 17,7 C 93 % 0 cb 1010,9 hPa 0,0 l/m 0,0 km/h (0 Bft) W 270 0 min 0,000 mm 0 W/m 16,5 C 17,6 C 4,8 km/h (1 Bft) 100,00 %
10.08.2019 03:20 17,4 C 17,4 C 17,5 C 94 % 0 cb 1010,9 hPa 0,0 l/m 0,0 km/h (0 Bft) W 270 0 min 0,000 mm 0 W/m 16,4 C 17,4 C 3,2 km/h (1 Bft) 100,00 %
10.08.2019 03:30 17,3 C 17,3 C 17,4 C 94 % 0 cb 1011,0 hPa 0,0 l/m 1,6 km/h (1 Bft) W 270 0 min 0,000 mm 0 W/m 16,3 C 17,3 C 3,2 km/h (1 Bft) 100,00 %
10.08.2019 03:40 17,2 C 17,2 C 17,3 C 94 % 0 cb 1010,9 hPa 0,0 l/m 1,6 km/h (1 Bft) W 270 0 min 0,000 mm 0 W/m 16,2 C 17,2 C 3,2 km/h (1 Bft) 100,00 %
10.08.2019 03:50 17,1 C 17,1 C 17,2 C 94 % 0 cb 1011,1 hPa 0,0 l/m 0,0 km/h (0 Bft) W 270 0 min 0,000 mm 0 W/m 16,1 C 17,1 C 3,2 km/h (1 Bft) 100,00 %
10.08.2019 04:00 17,0 C 17,0 C 17,1 C 95 % 0 cb 1011,0 hPa 0,0 l/m 0,0 km/h (0 Bft) W 270 0 min 0,000 mm 0 W/m 16,2 C 17,0 C 1,6 km/h (1 Bft) 100,00 %
10.08.2019 04:10 16,8 C 16,8 C 17,0 C 95 % 0 cb 1011,1 hPa 0,0 l/m 0,0 km/h (0 Bft) N-NW 337 0 min 0,000 mm 0 W/m 16,0 C 16,8 C 6,4 km/h (2 Bft) 100,00 %
10.08.2019 04:20 16,7 C 16,7 C 16,8 C 95 % 0 cb 1010,7 hPa 0,0 l/m 1,6 km/h (1 Bft) N-NW 337 0 min 0,000 mm 0 W/m 15,9 C 16,7 C 6,4 km/h (2 Bft) 99,12 %
10.08.2019 04:30 16,6 C 16,6 C 16,7 C 95 % 0 cb 1010,7 hPa 0,0 l/m 1,6 km/h (1 Bft) N-NW 337 0 min 0,000 mm 0 W/m 15,8 C 16,6 C 6,4 km/h (2 Bft) 96,93 %
10.08.2019 04:40 16,5 C 16,4 C 16,6 C 95 % 0 cb 1010,7 hPa 0,0 l/m 1,6 km/h (1 Bft) N 360 0 min 0,000 mm 0 W/m 15,7 C 16,5 C 4,8 km/h (1 Bft) 100,00 %
10.08.2019 04:50 16,4 C 16,4 C 16,5 C 95 % 0 cb 1010,9 hPa 0,0 l/m 0,0 km/h (0 Bft) N 0 0 min 0,000 mm 0 W/m 15,6 C 16,4 C 0,0 km/h (0 Bft) 100,00 %
10.08.2019 05:00 16,3 C 16,3 C 16,4 C 95 % 0 cb 1011,0 hPa 0,0 l/m 0,0 km/h (0 Bft) N 0 0 min 0,000 mm 0 W/m 15,5 C 16,3 C 0,0 km/h (0 Bft) 100,00 %
10.08.2019 05:10 16,3 C 16,3 C 16,3 C 96 % 0 cb 1011,1 hPa 0,0 l/m 0,0 km/h (0 Bft) N 0 0 min 0,000 mm 0 W/m 15,7 C 16,3 C 0,0 km/h (0 Bft) 100,00 %
10.08.2019 05:20 16,3 C 16,3 C 16,3 C 96 % 0 cb 1011,2 hPa 0,0 l/m 1,6 km/h (1 Bft) SW 225 0 min 0,000 mm 0 W/m 15,7 C 16,3 C 9,7 km/h (2 Bft) 100,00 %
10.08.2019 05:30 16,4 C 16,3 C 16,4 C 96 % 0 cb 1011,3 hPa 0,0 l/m 1,6 km/h (1 Bft) SW 225 0 min 0,000 mm 0 W/m 15,8 C 16,4 C 4,8 km/h (1 Bft) 100,00 %
10.08.2019 05:40 16,6 C 16,4 C 16,6 C 96 % 0 cb 1011,4 hPa 0,0 l/m 3,2 km/h (1 Bft) SW 225 0 min 0,000 mm 0 W/m 16,0 C 16,6 C 9,7 km/h (2 Bft) 100,00 %
10.08.2019 05:50 16,7 C 16,6 C 16,7 C 96 % 0 cb 1011,5 hPa 0,0 l/m 3,2 km/h (1 Bft) S-SW 202 0 min 0,000 mm 0 W/m 16,1 C 16,7 C 12,9 km/h (3 Bft) 100,00 %
10.08.2019 06:00 16,8 C 16,7 C 16,8 C 96 % 0 cb 1011,8 hPa 0,0 l/m 3,2 km/h (1 Bft) SW 225 0 min 0,000 mm 0 W/m 16,2 C 16,8 C 12,9 km/h (3 Bft) 100,00 %
10.08.2019 06:10 16,7 C 16,7 C 16,8 C 95 % 0 cb 1012,0 hPa 0,0 l/m 1,6 km/h (1 Bft) SW 225 0 min 0,000 mm 0 W/m 15,9 C 16,7 C 6,4 km/h (2 Bft) 98,68 %
10.08.2019 06:20 16,7 C 16,7 C 16,7 C 95 % 0 cb 1012,1 hPa 0,0 l/m 3,2 km/h (1 Bft) SW 225 0 min 0,000 mm 0 W/m 15,9 C 16,7 C 11,3 km/h (2 Bft) 100,00 %
10.08.2019 06:30 16,7 C 16,7 C 16,7 C 95 % 0 cb 1012,0 hPa 0,0 l/m 1,6 km/h (1 Bft) W-SW 247 0 min 0,000 mm 5 W/m 15,9 C 16,7 C 9,7 km/h (2 Bft) 100,00 %
10.08.2019 06:40 16,6 C 16,6 C 16,7 C 95 % 0 cb 1011,9 hPa 0,0 l/m 3,2 km/h (1 Bft) W-SW 247 0 min 0,000 mm 7 W/m 15,8 C 16,6 C 14,5 km/h (3 Bft) 100,00 %
10.08.2019 06:50 16,6 C 16,6 C 16,6 C 95 % 0 cb 1012,0 hPa 0,0 l/m 3,2 km/h (1 Bft) S-SW 202 0 min 0,000 mm 7 W/m 15,8 C 16,6 C 16,1 km/h (3 Bft) 100,00 %
10.08.2019 07:00 16,6 C 16,6 C 16,6 C 95 % 0 cb 1012,1 hPa 0,0 l/m 3,2 km/h (1 Bft) W 270 0 min 0,000 mm 12 W/m 15,8 C 16,6 C 11,3 km/h (2 Bft) 100,00 %
10.08.2019 07:10 16,6 C 16,6 C 16,6 C 95 % 0 cb 1012,1 hPa 0,0 l/m 4,8 km/h (1 Bft) S-SW 202 0 min 0,000 mm 26 W/m 15,8 C 16,6 C 17,7 km/h (3 Bft) 100,00 %
10.08.2019 07:20 16,6 C 16,6 C 16,6 C 95 % 0 cb 1012,3 hPa 0,0 l/m 3,2 km/h (1 Bft) SW 225 0 min 0,000 mm 26 W/m 15,8 C 16,6 C 12,9 km/h (3 Bft) 100,00 %
10.08.2019 07:30 16,6 C 16,6 C 16,6 C 94 % 0 cb 1012,5 hPa 0,0 l/m 4,8 km/h (1 Bft) W-SW 247 0 min 0,000 mm 49 W/m 15,6 C 16,6 C 17,7 km/h (3 Bft) 100,00 %
10.08.2019 07:40 16,7 C 16,6 C 16,7 C 94 % 0 cb 1012,5 hPa 0,0 l/m 4,8 km/h (1 Bft) W-SW 247 0 min 0,000 mm 127 W/m 15,7 C 16,7 C 16,1 km/h (3 Bft) 100,00 %
10.08.2019 07:50 17,0 C 16,7 C 17,0 C 94 % 0 cb 1012,7 hPa 0,0 l/m 6,4 km/h (2 Bft) SW 225 10 min 0,000 mm 163 W/m 16,0 C 17,0 C 19,3 km/h (3 Bft) 100,00 %
10.08.2019 08:00 17,2 C 17,0 C 17,2 C 92 % 0 cb 1012,8 hPa 0,0 l/m 8,0 km/h (2 Bft) W-SW 247 10 min 0,025 mm 195 W/m 15,9 C 17,2 C 20,9 km/h (4 Bft) 100,00 %
10.08.2019 08:10 17,4 C 17,2 C 17,4 C 90 % 0 cb 1012,8 hPa 0,0 l/m 4,8 km/h (1 Bft) SW 225 10 min 0,000 mm 209 W/m 15,7 C 17,4 C 17,7 km/h (3 Bft) 100,00 %
10.08.2019 08:20 17,4 C 17,3 C 17,4 C 87 % 0 cb 1012,9 hPa 0,0 l/m 4,8 km/h (1 Bft) W-SW 247 10 min 0,000 mm 223 W/m 15,2 C 17,4 C 17,7 km/h (3 Bft) 100,00 %
10.08.2019 08:30 17,9 C 17,4 C 17,9 C 85 % 0 cb 1013,0 hPa 0,0 l/m 4,8 km/h (1 Bft) SW 225 10 min 0,000 mm 315 W/m 15,3 C 17,9 C 20,9 km/h (4 Bft) 100,00 %
10.08.2019 08:40 18,2 C 17,9 C 18,2 C 84 % 0 cb 1013,2 hPa 0,0 l/m 4,8 km/h (1 Bft) SW 225 10 min 0,000 mm 220 W/m 15,4 C 18,2 C 16,1 km/h (3 Bft) 100,00 %
10.08.2019 08:50 18,5 C 18,2 C 18,5 C 84 % 0 cb 1013,3 hPa 0,0 l/m 6,4 km/h (2 Bft) SW 225 10 min 0,000 mm 471 W/m 15,7 C 18,5 C 27,4 km/h (4 Bft) 100,00 %
10.08.2019 09:00 19,1 C 18,6 C 19,1 C 82 % 0 cb 1013,3 hPa 0,0 l/m 6,4 km/h (2 Bft) S-SW 202 10 min 0,127 mm 258 W/m 16,0 C 19,1 C 25,7 km/h (4 Bft) 100,00 %
10.08.2019 09:10 19,2 C 19,0 C 19,2 C 81 % 0 cb 1013,4 hPa 0,0 l/m 6,4 km/h (2 Bft) S-SW 202 10 min 0,000 mm 466 W/m 15,9 C 19,2 C 25,7 km/h (4 Bft) 100,00 %
10.08.2019 09:20 19,4 C 19,2 C 19,4 C 78 % 0 cb 1013,3 hPa 0,0 l/m 6,4 km/h (2 Bft) SW 225 10 min 0,000 mm 313 W/m 15,5 C 19,4 C 22,5 km/h (4 Bft) 100,00 %
10.08.2019 09:30 19,6 C 19,4 C 19,6 C 77 % 0 cb 1013,4 hPa 0,0 l/m 8,0 km/h (2 Bft) S 180 10 min 0,000 mm 329 W/m 15,5 C 19,6 C 24,1 km/h (4 Bft) 100,00 %
10.08.2019 09:40 19,4 C 19,4 C 19,6 C 76 % 0 cb 1013,4 hPa 0,0 l/m 8,0 km/h (2 Bft) S-SW 202 10 min 0,000 mm 232 W/m 15,1 C 19,4 C 24,1 km/h (4 Bft) 100,00 %
10.08.2019 09:50 19,4 C 19,3 C 19,4 C 76 % 0 cb 1013,5 hPa 0,0 l/m 8,0 km/h (2 Bft) SW 225 10 min 0,000 mm 621 W/m 15,1 C 19,4 C 25,7 km/h (4 Bft) 100,00 %
10.08.2019 10:00 19,4 C 19,4 C 19,4 C 77 % 0 cb 1013,6 hPa 0,0 l/m 6,4 km/h (2 Bft) S-SW 202 10 min 0,178 mm 279 W/m 15,3 C 19,4 C 24,1 km/h (4 Bft) 100,00 %
10.08.2019 10:10 19,4 C 19,4 C 19,5 C 76 % 0 cb 1013,8 hPa 0,0 l/m 9,7 km/h (2 Bft) S-SW 202 10 min 0,000 mm 218 W/m 15,1 C 19,4 C 25,7 km/h (4 Bft) 100,00 %
10.08.2019 10:20 19,2 C 19,2 C 19,4 C 77 % 0 cb 1014,0 hPa 0,0 l/m 8,0 km/h (2 Bft) S 180 10 min 0,000 mm 260 W/m 15,1 C 19,2 C 22,5 km/h (4 Bft) 99,12 %
10.08.2019 10:30 19,3 C 19,2 C 19,3 C 77 % 0 cb 1014,0 hPa 0,0 l/m 9,7 km/h (2 Bft) S-SW 202 10 min 0,000 mm 346 W/m 15,2 C 19,3 C 25,7 km/h (4 Bft) 100,00 %
10.08.2019 10:40 19,6 C 19,3 C 19,6 C 75 % 0 cb 1014,1 hPa 0,0 l/m 9,7 km/h (2 Bft) S-SW 202 10 min 0,000 mm 274 W/m 15,0 C 19,6 C 25,7 km/h (4 Bft) 100,00 %
10.08.2019 10:50 19,8 C 19,6 C 19,8 C 76 % 0 cb 1014,2 hPa 0,0 l/m 8,0 km/h (2 Bft) SW 225 10 min 0,000 mm 295 W/m 15,4 C 19,8 C 25,7 km/h (4 Bft) 100,00 %
10.08.2019 11:00 20,2 C 19,8 C 20,2 C 73 % 0 cb 1014,2 hPa 0,0 l/m 9,7 km/h (2 Bft) S-SW 202 10 min 0,178 mm 332 W/m 15,2 C 20,2 C 22,5 km/h (4 Bft) 100,00 %
10.08.2019 11:10 20,7 C 20,2 C 20,7 C 71 % 0 cb 1014,2 hPa 0,0 l/m 11,3 km/h (2 Bft) S 180 10 min 0,000 mm 911 W/m 15,2 C 20,7 C 25,7 km/h (4 Bft) 100,00 %
10.08.2019 11:20 21,1 C 20,7 C 21,1 C 70 % 0 cb 1014,1 hPa 0,0 l/m 11,3 km/h (2 Bft) S 180 10 min 0,000 mm 533 W/m 15,4 C 21,1 C 27,4 km/h (4 Bft) 100,00 %
10.08.2019 11:30 21,1 C 21,1 C 21,2 C 68 % 0 cb 1014,3 hPa 0,0 l/m 11,3 km/h (2 Bft) W-SW 247 10 min 0,000 mm 308 W/m 15,0 C 21,1 C 20,9 km/h (4 Bft) 100,00 %
10.08.2019 11:40 20,9 C 20,9 C 21,1 C 67 % 0 cb 1014,3 hPa 0,0 l/m 9,7 km/h (2 Bft) W-SW 247 10 min 0,000 mm 383 W/m 14,5 C 20,9 C 27,4 km/h (4 Bft) 100,00 %
10.08.2019 11:50 20,9 C 20,9 C 20,9 C 66 % 0 cb 1014,4 hPa 0,0 l/m 11,3 km/h (2 Bft) W-SW 247 10 min 0,000 mm 388 W/m 14,3 C 20,9 C 29,0 km/h (5 Bft) 100,00 %
10.08.2019 12:00 21,1 C 20,9 C 21,2 C 64 % 0 cb 1014,5 hPa 0,0 l/m 9,7 km/h (2 Bft) W 270 10 min 0,279 mm 483 W/m 14,0 C 21,1 C 20,9 km/h (4 Bft) 100,00 %
10.08.2019 12:10 20,9 C 20,9 C 21,1 C 65 % 0 cb 1014,6 hPa 0,0 l/m 8,0 km/h (2 Bft) W 270 10 min 0,000 mm 243 W/m 14,1 C 20,9 C 22,5 km/h (4 Bft) 100,00 %
10.08.2019 12:20 20,8 C 20,8 C 20,8 C 68 % 0 cb 1014,7 hPa 0,0 l/m 8,0 km/h (2 Bft) W-SW 247 10 min 0,000 mm 362 W/m 14,7 C 20,8 C 25,7 km/h (4 Bft) 100,00 %
10.08.2019 12:30 21,0 C 20,8 C 21,0 C 67 % 0 cb 1014,6 hPa 0,0 l/m 6,4 km/h (2 Bft) W 270 10 min 0,000 mm 566 W/m 14,6 C 21,0 C 24,1 km/h (4 Bft) 100,00 %
10.08.2019 12:40 21,6 C 21,1 C 21,6 C 63 % 0 cb 1014,5 hPa 0,0 l/m 6,4 km/h (2 Bft) S-SW 202 10 min 0,000 mm 592 W/m 14,2 C 21,6 C 24,1 km/h (4 Bft) 100,00 %
10.08.2019 12:50 21,4 C 21,4 C 21,6 C 63 % 0 cb 1014,5 hPa 0,0 l/m 8,0 km/h (2 Bft) W 270 10 min 0,000 mm 353 W/m 14,1 C 21,4 C 20,9 km/h (4 Bft) 100,00 %
10.08.2019 13:00 21,4 C 21,4 C 21,4 C 62 % 0 cb 1014,7 hPa 0,0 l/m 8,0 km/h (2 Bft) W-SW 247 10 min 0,229 mm 338 W/m 13,8 C 21,4 C 24,1 km/h (4 Bft) 100,00 %
10.08.2019 13:10 21,4 C 21,4 C 21,5 C 62 % 0 cb 1014,8 hPa 0,0 l/m 8,0 km/h (2 Bft) W-SW 247 10 min 0,000 mm 320 W/m 13,8 C 21,4 C 25,7 km/h (4 Bft) 100,00 %
10.08.2019 13:20 21,6 C 21,4 C 21,6 C 63 % 0 cb 1014,6 hPa 0,0 l/m 8,0 km/h (2 Bft) W 270 10 min 0,000 mm 401 W/m 14,2 C 21,6 C 22,5 km/h (4 Bft) 100,00 %
10.08.2019 13:30 21,7 C 21,6 C 21,7 C 61 % 0 cb 1014,4 hPa 0,0 l/m 8,0 km/h (2 Bft) S 180 10 min 0,000 mm 450 W/m 13,8 C 21,7 C 22,5 km/h (4 Bft) 100,00 %
10.08.2019 13:40 21,8 C 21,7 C 21,8 C 62 % 0 cb 1014,5 hPa 0,0 l/m 8,0 km/h (2 Bft) SW 225 10 min 0,000 mm 410 W/m 14,2 C 21,8 C 19,3 km/h (3 Bft) 100,00 %
10.08.2019 13:50 22,2 C 21,8 C 22,2 C 60 % 0 cb 1014,6 hPa 0,0 l/m 8,0 km/h (2 Bft) W 270 10 min 0,000 mm 1092 W/m 14,1 C 22,2 C 27,4 km/h (4 Bft) 99,56 %
10.08.2019 14:00 22,6 C 22,2 C 22,6 C 60 % 0 cb 1014,5 hPa 0,0 l/m 12,9 km/h (3 Bft) S-SW 202 10 min 0,279 mm 1106 W/m 14,4 C 22,6 C 29,0 km/h (5 Bft) 100,00 %
10.08.2019 14:10 22,8 C 22,6 C 22,8 C 59 % 0 cb 1014,4 hPa 0,0 l/m 11,3 km/h (2 Bft) SW 225 10 min 0,000 mm 984 W/m 14,4 C 22,8 C 29,0 km/h (5 Bft) 100,00 %
10.08.2019 14:20 23,1 C 22,8 C 23,1 C 59 % 0 cb 1014,5 hPa 0,0 l/m 9,7 km/h (2 Bft) SW 225 10 min 0,000 mm 1007 W/m 14,6 C 23,1 C 29,0 km/h (5 Bft) 100,00 %
10.08.2019 14:30 23,1 C 22,9 C 23,1 C 58 % 0 cb 1014,5 hPa 0,0 l/m 11,3 km/h (2 Bft) S-SW 202 10 min 0,000 mm 998 W/m 14,4 C 23,1 C 29,0 km/h (5 Bft) 100,00 %
10.08.2019 14:40 23,6 C 23,1 C 23,6 C 59 % 0 cb 1014,4 hPa 0,0 l/m 8,0 km/h (2 Bft) S-SW 202 10 min 0,000 mm 991 W/m 15,1 C 23,6 C 24,1 km/h (4 Bft) 100,00 %
10.08.2019 14:50 23,7 C 23,6 C 23,8 C 56 % 0 cb 1014,5 hPa 0,0 l/m 8,0 km/h (2 Bft) W-SW 247 10 min 0,000 mm 325 W/m 14,4 C 23,7 C 30,6 km/h (5 Bft) 100,00 %
10.08.2019 15:00 23,3 C 23,3 C 23,7 C 58 % 0 cb 1014,5 hPa 0,0 l/m 8,0 km/h (2 Bft) W-SW 247 10 min 0,381 mm 316 W/m 14,6 C 23,3 C 25,7 km/h (4 Bft) 100,00 %
10.08.2019 15:10 23,3 C 23,2 C 23,3 C 55 % 0 cb 1014,6 hPa 0,0 l/m 8,0 km/h (2 Bft) W-SW 247 10 min 0,000 mm 932 W/m 13,7 C 23,3 C 24,1 km/h (4 Bft) 100,00 %
10.08.2019 15:20 23,8 C 23,3 C 23,8 C 55 % 0 cb 1014,5 hPa 0,0 l/m 9,7 km/h (2 Bft) W 270 10 min 0,000 mm 895 W/m 14,2 C 23,8 C 25,7 km/h (4 Bft) 100,00 %
10.08.2019 15:30 24,4 C 23,8 C 24,4 C 54 % 0 cb 1014,5 hPa 0,0 l/m 9,7 km/h (2 Bft) SW 225 10 min 0,000 mm 882 W/m 14,5 C 24,4 C 25,7 km/h (4 Bft) 100,00 %
10.08.2019 15:40 24,2 C 24,2 C 24,5 C 53 % 0 cb 1014,5 hPa 0,0 l/m 8,0 km/h (2 Bft) SW 225 10 min 0,000 mm 274 W/m 14,0 C 24,2 C 25,7 km/h (4 Bft) 100,00 %
10.08.2019 15:50 24,2 C 23,9 C 24,2 C 54 % 0 cb 1014,5 hPa 0,0 l/m 11,3 km/h (2 Bft) W 270 10 min 0,000 mm 856 W/m 14,3 C 24,2 C 29,0 km/h (5 Bft) 100,00 %
10.08.2019 16:00 24,2 C 24,1 C 24,2 C 53 % 0 cb 1014,5 hPa 0,0 l/m 11,3 km/h (2 Bft) W 270 10 min 0,432 mm 816 W/m 14,0 C 24,2 C 27,4 km/h (4 Bft) 99,12 %
10.08.2019 16:10 24,2 C 24,2 C 24,3 C 51 % 0 cb 1014,5 hPa 0,0 l/m 9,7 km/h (2 Bft) W-SW 247 10 min 0,000 mm 290 W/m 13,4 C 24,2 C 22,5 km/h (4 Bft) 100,00 %
10.08.2019 16:20 23,6 C 23,6 C 24,1 C 52 % 0 cb 1014,6 hPa 0,0 l/m 9,7 km/h (2 Bft) W 270 10 min 0,000 mm 204 W/m 13,2 C 23,6 C 25,7 km/h (4 Bft) 100,00 %
10.08.2019 16:30 23,4 C 23,3 C 23,6 C 55 % 0 cb 1014,5 hPa 0,0 l/m 8,0 km/h (2 Bft) W 270 10 min 0,000 mm 773 W/m 13,8 C 23,4 C 20,9 km/h (4 Bft) 100,00 %
10.08.2019 16:40 24,2 C 23,4 C 24,2 C 51 % 0 cb 1014,6 hPa 0,0 l/m 6,4 km/h (2 Bft) SW 225 10 min 0,000 mm 703 W/m 13,4 C 24,2 C 25,7 km/h (4 Bft) 99,12 %
10.08.2019 16:50 24,4 C 24,2 C 24,4 C 51 % 0 cb 1014,5 hPa 0,0 l/m 9,7 km/h (2 Bft) W 270 10 min 0,000 mm 737 W/m 13,6 C 24,4 C 24,1 km/h (4 Bft) 100,00 %
10.08.2019 17:00 24,6 C 24,4 C 24,6 C 50 % 0 cb 1014,6 hPa 0,0 l/m 9,7 km/h (2 Bft) SW 225 10 min 0,305 mm 700 W/m 13,5 C 24,6 C 27,4 km/h (4 Bft) 100,00 %
10.08.2019 17:10 24,5 C 24,5 C 24,7 C 47 % 0 cb 1014,7 hPa 0,0 l/m 12,9 km/h (3 Bft) W 270 10 min 0,000 mm 666 W/m 12,4 C 24,5 C 32,2 km/h (5 Bft) 100,00 %
10.08.2019 17:20 24,9 C 24,4 C 24,9 C 48 % 0 cb 1014,7 hPa 0,0 l/m 8,0 km/h (2 Bft) W 270 10 min 0,000 mm 647 W/m 13,1 C 24,9 C 19,3 km/h (3 Bft) 100,00 %
10.08.2019 17:30 24,8 C 24,8 C 25,0 C 46 % 0 cb 1014,8 hPa 0,0 l/m 9,7 km/h (2 Bft) W 270 10 min 0,000 mm 589 W/m 12,4 C 24,8 C 25,7 km/h (4 Bft) 100,00 %
10.08.2019 17:40 24,2 C 24,2 C 24,8 C 48 % 0 cb 1014,9 hPa 0,0 l/m 8,0 km/h (2 Bft) W 270 10 min 0,000 mm 527 W/m 12,5 C 24,2 C 22,5 km/h (4 Bft) 100,00 %
10.08.2019 17:50 24,3 C 24,2 C 24,3 C 48 % 0 cb 1015,0 hPa 0,0 l/m 11,3 km/h (2 Bft) W 270 10 min 0,000 mm 522 W/m 12,6 C 24,3 C 24,1 km/h (4 Bft) 100,00 %
10.08.2019 18:00 24,3 C 24,3 C 24,4 C 48 % 0 cb 1015,1 hPa 0,0 l/m 14,5 km/h (3 Bft) W 270 10 min 0,330 mm 464 W/m 12,6 C 24,3 C 35,4 km/h (5 Bft) 100,00 %
10.08.2019 18:10 24,3 C 24,2 C 24,3 C 49 % 0 cb 1015,0 hPa 0,0 l/m 9,7 km/h (2 Bft) W 270 10 min 0,000 mm 466 W/m 12,9 C 24,3 C 25,7 km/h (4 Bft) 100,00 %
10.08.2019 18:20 23,8 C 23,8 C 24,3 C 51 % 0 cb 1015,1 hPa 0,0 l/m 9,7 km/h (2 Bft) W 270 10 min 0,000 mm 394 W/m 13,0 C 23,8 C 20,9 km/h (4 Bft) 98,68 %
10.08.2019 18:30 23,6 C 23,6 C 23,9 C 52 % 0 cb 1015,2 hPa 0,0 l/m 11,3 km/h (2 Bft) W 270 10 min 0,000 mm 371 W/m 13,2 C 23,6 C 25,7 km/h (4 Bft) 100,00 %
10.08.2019 18:40 23,4 C 23,4 C 23,6 C 52 % 0 cb 1015,2 hPa 0,0 l/m 11,3 km/h (2 Bft) W 270 10 min 0,000 mm 381 W/m 13,0 C 23,4 C 29,0 km/h (5 Bft) 100,00 %
10.08.2019 18:50 23,4 C 23,4 C 23,4 C 52 % 0 cb 1015,1 hPa 0,0 l/m 9,7 km/h (2 Bft) W 270 10 min 0,000 mm 304 W/m 13,0 C 23,4 C 22,5 km/h (4 Bft) 100,00 %
10.08.2019 19:00 23,2 C 23,2 C 23,4 C 52 % 0 cb 1015,3 hPa 0,0 l/m 9,7 km/h (2 Bft) W-NW 292 0 min 0,229 mm 93 W/m 12,8 C 23,2 C 24,1 km/h (4 Bft) 100,00 %
10.08.2019 19:10 23,1 C 23,1 C 23,2 C 53 % 0 cb 1015,3 hPa 0,0 l/m 9,7 km/h (2 Bft) W 270 10 min 0,000 mm 227 W/m 13,0 C 23,1 C 22,5 km/h (4 Bft) 100,00 %
10.08.2019 19:20 22,9 C 22,9 C 23,1 C 53 % 0 cb 1015,4 hPa 0,0 l/m 6,4 km/h (2 Bft) W 270 10 min 0,000 mm 211 W/m 12,8 C 22,9 C 19,3 km/h (3 Bft) 100,00 %
10.08.2019 19:30 22,7 C 22,7 C 22,9 C 53 % 0 cb 1015,4 hPa 0,0 l/m 6,4 km/h (2 Bft) W 270 10 min 0,000 mm 195 W/m 12,6 C 22,7 C 17,7 km/h (3 Bft) 100,00 %
10.08.2019 19:40 22,4 C 22,4 C 22,7 C 54 % 0 cb 1015,5 hPa 0,0 l/m 6,4 km/h (2 Bft) W-SW 247 0 min 0,000 mm 137 W/m 12,6 C 22,4 C 16,1 km/h (3 Bft) 100,00 %
10.08.2019 19:50 22,3 C 22,3 C 22,4 C 53 % 0 cb 1015,6 hPa 0,0 l/m 6,4 km/h (2 Bft) W 270 0 min 0,000 mm 118 W/m 12,2 C 22,3 C 20,9 km/h (4 Bft) 100,00 %
10.08.2019 20:00 22,2 C 22,2 C 22,3 C 54 % 0 cb 1015,6 hPa 0,0 l/m 4,8 km/h (1 Bft) W 270 0 min 0,127 mm 76 W/m 12,4 C 22,2 C 16,1 km/h (3 Bft) 100,00 %
10.08.2019 20:10 22,0 C 22,0 C 22,2 C 53 % 0 cb 1015,7 hPa 0,0 l/m 6,4 km/h (2 Bft) W-SW 247 0 min 0,000 mm 72 W/m 12,0 C 22,0 C 20,9 km/h (4 Bft) 100,00 %
10.08.2019 20:20 21,8 C 21,8 C 22,0 C 54 % 0 cb 1015,8 hPa 0,0 l/m 6,4 km/h (2 Bft) W-SW 247 0 min 0,000 mm 40 W/m 12,1 C 21,8 C 19,3 km/h (3 Bft) 100,00 %
10.08.2019 20:30 21,6 C 21,6 C 21,8 C 55 % 0 cb 1015,8 hPa 0,0 l/m 3,2 km/h (1 Bft) W 270 0 min 0,000 mm 32 W/m 12,2 C 21,6 C 12,9 km/h (3 Bft) 100,00 %
10.08.2019 20:40 21,2 C 21,2 C 21,6 C 56 % 0 cb 1015,9 hPa 0,0 l/m 1,6 km/h (1 Bft) W-SW 247 0 min 0,000 mm 19 W/m 12,1 C 21,2 C 4,8 km/h (1 Bft) 100,00 %
10.08.2019 20:50 20,8 C 20,8 C 21,2 C 58 % 0 cb 1016,0 hPa 0,0 l/m 0,0 km/h (0 Bft) W-SW 247 0 min 0,000 mm 9 W/m 12,2 C 20,8 C 1,6 km/h (1 Bft) 100,00 %
10.08.2019 21:00 20,3 C 20,3 C 20,8 C 59 % 0 cb 1016,0 hPa 0,0 l/m 0,0 km/h (0 Bft) W-SW 247 0 min 0,051 mm 5 W/m 12,0 C 20,3 C 1,6 km/h (1 Bft) 100,00 %
10.08.2019 21:10 19,8 C 19,8 C 20,3 C 63 % 0 cb 1016,1 hPa 0,0 l/m 0,0 km/h (0 Bft) N 0 0 min 0,000 mm 0 W/m 12,5 C 19,8 C 0,0 km/h (0 Bft) 99,56 %
10.08.2019 21:20 19,3 C 19,3 C 19,8 C 65 % 0 cb 1016,3 hPa 0,0 l/m 0,0 km/h (0 Bft) W-SW 247 0 min 0,000 mm 0 W/m 12,6 C 19,3 C 1,6 km/h (1 Bft) 100,00 %
10.08.2019 21:30 18,8 C 18,8 C 19,3 C 67 % 0 cb 1016,4 hPa 0,0 l/m 0,0 km/h (0 Bft) W-SW 247 0 min 0,000 mm 0 W/m 12,5 C 18,8 C 1,6 km/h (1 Bft) 100,00 %
10.08.2019 21:40 18,4 C 18,4 C 18,8 C 68 % 0 cb 1016,5 hPa 0,0 l/m 0,0 km/h (0 Bft) N 0 0 min 0,000 mm 0 W/m 12,4 C 18,4 C 0,0 km/h (0 Bft) 100,00 %
10.08.2019 21:50 18,0 C 18,0 C 18,4 C 70 % 0 cb 1016,5 hPa 0,0 l/m 0,0 km/h (0 Bft) N 0 0 min 0,000 mm 0 W/m 12,4 C 18,0 C 0,0 km/h (0 Bft) 100,00 %
10.08.2019 22:00 17,7 C 17,7 C 18,0 C 71 % 0 cb 1016,6 hPa 0,0 l/m 0,0 km/h (0 Bft) N 0 0 min 0,000 mm 0 W/m 12,4 C 17,7 C 0,0 km/h (0 Bft) 100,00 %
10.08.2019 22:10 17,3 C 17,3 C 17,7 C 73 % 0 cb 1016,6 hPa 0,0 l/m 0,0 km/h (0 Bft) N 0 0 min 0,000 mm 0 W/m 12,4 C 17,3 C 0,0 km/h (0 Bft) 100,00 %
10.08.2019 22:20 17,1 C 17,1 C 17,3 C 74 % 0 cb 1016,6 hPa 0,0 l/m 0,0 km/h (0 Bft) N 0 0 min 0,000 mm 0 W/m 12,4 C 17,1 C 0,0 km/h (0 Bft) 100,00 %
10.08.2019 22:30 16,9 C 16,9 C 17,1 C 74 % 0 cb 1016,7 hPa 0,0 l/m 0,0 km/h (0 Bft) N 0 0 min 0,000 mm 0 W/m 12,2 C 16,9 C 0,0 km/h (0 Bft) 100,00 %
10.08.2019 22:40 16,8 C 16,8 C 16,9 C 75 % 0 cb 1016,7 hPa 0,0 l/m 0,0 km/h (0 Bft) N 0 0 min 0,000 mm 0 W/m 12,3 C 16,8 C 0,0 km/h (0 Bft) 100,00 %
10.08.2019 22:50 16,5 C 16,5 C 16,7 C 75 % 0 cb 1016,8 hPa 0,0 l/m 0,0 km/h (0 Bft) N 0 0 min 0,000 mm 0 W/m 12,1 C 16,5 C 0,0 km/h (0 Bft) 100,00 %
10.08.2019 23:00 16,4 C 16,4 C 16,5 C 76 % 0 cb 1016,7 hPa 0,0 l/m 0,0 km/h (0 Bft) N 0 0 min 0,025 mm 0 W/m 12,2 C 16,4 C 0,0 km/h (0 Bft) 100,00 %
10.08.2019 23:10 16,6 C 16,4 C 16,6 C 74 % 0 cb 1016,8 hPa 0,0 l/m 0,0 km/h (0 Bft) N 0 0 min 0,000 mm 0 W/m 11,9 C 16,6 C 0,0 km/h (0 Bft) 100,00 %
10.08.2019 23:20 16,6 C 16,5 C 16,6 C 75 % 0 cb 1016,8 hPa 0,0 l/m 0,0 km/h (0 Bft) N 0 0 min 0,000 mm 0 W/m 12,1 C 16,6 C 0,0 km/h (0 Bft) 100,00 %
10.08.2019 23:30 16,4 C 16,4 C 16,6 C 75 % 0 cb 1016,8 hPa 0,0 l/m 0,0 km/h (0 Bft) N 0 0 min 0,000 mm 0 W/m 12,0 C 16,4 C 0,0 km/h (0 Bft) 100,00 %
10.08.2019 23:40 16,2 C 16,2 C 16,4 C 77 % 0 cb 1016,9 hPa 0,0 l/m 0,0 km/h (0 Bft) N 0 0 min 0,000 mm 0 W/m 12,2 C 16,2 C 0,0 km/h (0 Bft) 100,00 %
10.08.2019 23:50 15,9 C 15,9 C 16,2 C 78 % 0 cb 1016,8 hPa 0,0 l/m 0,0 km/h (0 Bft) N 0 0 min 0,000 mm 0 W/m 12,1 C 15,9 C 0,0 km/h (0 Bft) 100,00 %
_ Min-Zeit 23:50 23:50 23:50 17:30 00:00 01:10 - 03:10 - - - - - 23:10 23:50 04:50 04:30
Minimum _ 15,9 C 15,9 C 16,2 C 46 % 0 cb 1010,1 hPa - 0,0 km/h (0 Bft) - - - - - 11,9 C 15,9 C 0,0 km/h (0 Bft) 96,93 %
_ Max-Zeit 17:30 17:30 17:30 00:00 00:00 23:40 02:00 18:00 - - 07:50 16:00 14:00 00:00 17:20 18:00 00:00
Maximum _ 25,0 C 24,8 C 25,0 C 97 % 0 cb 1016,9 hPa 0,2 l/m 14,5 km/h
W (3 Bft)
- - 10 min 0,432 mm 1106 W/m 20,2 C 24,9 C 35,4 km/h
W-SW (5 Bft)
100,00 %
Durchschnitt _ 20,0 C 19,9 C 20,1 C 74 % 0 cb 1013,6 hPa #0,2 l/m 5,3 km/h (1 Bft) W - #11:40 h #3,175 mm 395 W/m 14,8 C 20,0 C 15,8 km/h (3 Bft) 99,93 %
Wetterstation Gdesweiler